WEATHER DATA

YESTERDAY
Time Temp. Dewp. Hum. Bar.
00:04 -25.7 -27.7 82 1028.6
00:15 -25.9 -27.9 82 1028.7
00:25 -26.1 -28.1 82 1028.7
00:35 -26.2 -28.2 82 1028.6
00:45 -26.4 -28.3 82 1028.5
00:55 -26.5 -28.4 82 1028.5
01:05 -26.8 -28.9 81 1028.6
01:15 -27 -29.1 81 1028.5
01:26 -27.2 -29.3 81 1028.5
01:36 -27.2 -29.1 82 1028.5
01:45 -27.3 -29.2 82 1028.4
01:56 -27.4 -29.5 81 1028.4
02:06 -27.6 -29.6 81 1028.4
02:16 -27.7 -29.6 82 1028.3
02:26 -27.8 -29.7 82 1028.1
02:36 -27.9 -29.8 82 1028
02:46 -28 -30 81 1027.9
02:56 -28.2 -30.2 81 1028
03:06 -28.2 -30.1 82 1027.9
03:17 -28.2 -30.1 82 1028
03:26 -28.3 -30.2 82 1028.1
03:36 -28.4 -30.3 82 1028
03:47 -28.5 -30.4 82 1027.9
03:57 -28.5 -30.4 82 1027.8
04:07 -28.5 -30.4 82 1027.8
04:17 -28.4 -30.3 82 1027.7
04:27 -28.2 -30.1 82 1027.6
04:37 -28 -29.8 83 1027.4
04:47 -27.9 -29.8 82 1027.3
04:58 -27.9 -29.8 82 1027.4
05:08 -27.8 -29.7 82 1027.3
05:17 -27.6 -29.4 83 1027.2
05:27 -27.5 -29.4 82 1027.2
05:38 -27.3 -29.1 83 1027
05:48 -27.2 -29.1 82 1027
05:58 -27.1 -28.9 83 1027
06:08 -27.1 -28.9 83 1026.9
06:18 -27.1 -29 82 1027.2
06:28 -27.2 -29.1 82 1027.2
06:38 -27.3 -29.2 82 1026.9
06:49 -27.2 -29.1 82 1026.9
06:58 -27.2 -29.1 82 1026.9
07:08 -27.3 -29.2 82 1026.8
07:19 -27.2 -29.1 82 1026.8
07:29 -27.2 -29.1 82 1026.8
07:39 -27.3 -29.2 82 1026.7
07:48 -27.3 -29.2 82 1026.8
07:59 -27.5 -29.4 82 1026.8
08:09 -27.7 -29.7 81 1026.8
08:19 -28 -30 81 1026.9
08:30 -28.1 -30.1 81 1026.9
08:40 -28 -29.9 82 1026.9
08:49 -27.8 -29.7 82 1026.9
08:59 -27.6 -29.4 83 1027
09:10 -27.3 -29.1 83 1026.9
09:20 -27.1 -28.9 83 1027
09:30 -27 -28.8 83 1026.8
09:40 -27 -28.9 82 1026.9
09:50 -27.1 -29 82 1026.9
10:00 -27 -28.9 82 1026.9
10:10 -26.8 -28.7 82 1026.9
10:21 -26.7 -28.6 82 1026.7
10:30 -26.6 -28.5 82 1026.5
10:40 -26.5 -28.4 82 1026.5
10:50 -26.3 -28.1 83 1026.5
11:01 -26.1 -27.9 83 1026.3
11:11 -25.8 -27.6 83 1026.3
11:20 -25.8 -27.8 82 1026.3
11:31 -25.8 -27.8 82 1026.3
11:41 -25.7 -27.7 82 1026.1
11:51 -25.6 -27.6 82 1026
12:01 -25.5 -27.5 82 1025.9
12:11 -25.4 -27.4 82 1025.8
12:21 -25.3 -27.3 82 1025.8
12:31 -25.2 -27.2 82 1025.7
12:42 -25.1 -27.1 82 1025.6
12:52 -25.1 -27.1 82 1025.6
13:02 -25.2 -27.2 82 1025.5
13:11 -25.2 -27.2 82 1025.4
13:22 -25.3 -27.4 81 1025.4
13:32 -25.4 -27.5 81 1025.3
13:42 -25.3 -27.3 82 1025.3
13:53 -25.3 -27.3 82 1025.3
14:02 -25.2 -27.2 82 1025.2
14:12 -25.2 -27.2 82 1025.2
14:22 -25.2 -27.2 82 1025.2
14:33 -25.2 -27.2 82 1025.2
14:43 -25.2 -27.2 82 1025.2
14:52 -25.1 -27.1 82 1025.2
15:03 -25 -27 82 1025.1
15:13 -24.9 -26.9 82 1025
15:23 -24.9 -26.9 82 1024.9
15:33 -24.8 -26.8 82 1024.8
15:43 -24.7 -26.7 82 1024.8
15:53 -24.6 -26.6 82 1024.7
16:03 -24.5 -26.5 82 1024.7
16:13 -24.5 -26.5 82 1024.7
16:24 -24.3 -26.3 82 1024.5
16:34 -24.2 -26.2 82 1024.6
16:43 -24.1 -26.1 82 1024.5
16:54 -24 -26 82 1024.6
17:04 -23.9 -25.9 82 1024.7
17:14 -23.8 -25.7 83 1024.5
17:24 -23.7 -25.6 83 1024.5
17:34 -23.6 -25.5 83 1024.5
17:44 -23.5 -25.4 83 1024.3
17:54 -23.5 -25.5 82 1024.3
18:05 -23.5 -25.5 82 1024.3
18:14 -23.4 -25.4 82 1024
18:24 -23.3 -25.2 83 1023.9
18:34 -23.3 -25.2 83 1023.8
18:45 -23.2 -25.1 83 1023.7
18:55 -23.1 -25 83 1023.6
19:05 -23 -24.9 83 1023.7
19:15 -22.9 -24.8 83 1023.6
19:25 -22.9 -24.8 83 1023.5
19:35 -22.8 -24.7 83 1023.5
19:45 -22.8 -24.7 83 1023.3
19:56 -22.8 -24.7 83 1023.3
20:06 -22.7 -24.6 83 1023.2
20:15 -22.7 -24.6 83 1023.2
20:26 -22.7 -24.6 83 1023.3
20:36 -22.6 -24.5 83 1023.2
20:46 -22.4 -24.3 83 1023.2
20:56 -22.4 -24.3 83 1023.3
21:06 -22.3 -24.2 83 1023.1
21:16 -22.3 -24.2 83 1023.1
21:26 -22.2 -24.1 83 1023
21:36 -22.2 -24.1 83 1023
21:47 -22.2 -24.1 83 1022.8
21:56 -22.2 -24.1 83 1022.9
22:06 -22.1 -24 83 1023
22:17 -22 -23.9 83 1022.9
22:27 -21.9 -23.8 83 1022.8
22:37 -21.8 -23.7 83 1022.7
22:47 -21.7 -23.6 83 1022.4
22:57 -21.6 -23.5 83 1022.4
23:07 -21.4 -23.2 84 1022.4
23:17 -21.2 -23 84 1022.3
23:28 -21 -22.8 84 1022.3
23:37 -20.8 -22.6 84 1022.2
23:47 -20.7 -22.5 84 1022.2
23:57 -20.7 -22.6 83 1022.3

DAY STATISTIC

2021-12-06
TEMPERATURE
AVERAGE
-25.4
HIGH
-20.7
23:47
LOW
-28.5
03:47
PRESSURE
AVERAGE
1025.7
HIGH
1028.7
00:15
LOW
1022.2
23:37
DEWPOINT
AVERAGE
-27.3
HIGH
-22.5
23:47
LOW
-30.4
03:47
HUMIDITY
AVERAGE
82
HIGH
84
23:07
LOW
81
01:05
TEMPERATURE (°C)
LOW
-28.5
HIGH
-20.7
AVERAGE
-25.4
PRESSURE (hpa)
LOW
1022.2
HIGH
1028.7
AVERAGE
1025.7
DEVICE